Verstervig, Denmark
Current Conditions -  °F | °C
As of 11:20 PM on Friday 24 Oct 2014 (Local Time) from EKKA Reporting Station
Light Rain Light Rain  
Wind Chill: 52°   Ceiling: 700
Heat Index: 52°   Visibility: 2.1mi
Dew Point: 52°   Wind: 12mph
Humidity: 100%   Direction: 180°S
Pressure: 29.88"   Gusts: 23mph
Location:  56.7°N, 8.22°E
Report Text: EKKA 242120Z 18010G20KT 3500 -RA FEW005 BKN007 11/11 Q1012
Loading
Personal Weather Stations






























Interactive Weather Map New forecast layout! Learn more

10-Day Weather Forecast

Advertisements
Track Severe Weather on mobile